sensor_id;sensor_type;location;lat;lon;timestamp;P1;durP1;ratioP1;P2;durP2;ratioP2
44143;SDS011;68165;51.920;4.492;2023-07-08T00:01:53;4.95;;;1.85;;
44143;SDS011;68165;51.920;4.492;2023-07-08T00:04:19;4.85;;;1.42;;
44143;SDS011;68165;51.920;4.492;2023-07-08T00:06:44;5.82;;;1.90;;
44143;SDS011;68165;51.920;4.492;2023-07-08T00:09:10;3.90;;;1.75;;
44143;SDS011;68165;51.920;4.492;2023-07-08T00:11:37;3.85;;;1.65;;
44143;SDS011;68165;51.920;4.492;2023-07-08T00:14:02;6.68;;;1.98;;
44143;SDS011;68165;51.920;4.492;2023-07-08T00:16:27;3.75;;;1.80;;
44143;SDS011;68165;51.920;4.492;2023-07-08T00:18:53;4.90;;;2.03;;
44143;SDS011;68165;51.920;4.492;2023-07-08T00:21:18;7.38;;;2.30;;
44143;SDS011;68165;51.920;4.492;2023-07-08T00:23:44;4.30;;;1.42;;
44143;SDS011;68165;51.920;4.492;2023-07-08T00:26:13;3.38;;;1.58;;
44143;SDS011;68165;51.920;4.492;2023-07-08T00:28:43;4.78;;;1.73;;
44143;SDS011;68165;51.920;4.492;2023-07-08T00:31:09;3.90;;;1.60;;
44143;SDS011;68165;51.920;4.492;2023-07-08T00:33:35;4.43;;;1.50;;
44143;SDS011;68165;51.920;4.492;2023-07-08T00:36:01;5.97;;;1.98;;
44143;SDS011;68165;51.920;4.492;2023-07-08T00:38:27;4.57;;;1.83;;
44143;SDS011;68165;51.920;4.492;2023-07-08T00:40:58;4.28;;;1.65;;
44143;SDS011;68165;51.920;4.492;2023-07-08T00:43:37;3.97;;;1.50;;
44143;SDS011;68165;51.920;4.492;2023-07-08T00:48:53;3.72;;;1.55;;
44143;SDS011;68165;51.920;4.492;2023-07-08T00:51:20;5.78;;;1.83;;
44143;SDS011;68165;51.920;4.492;2023-07-08T00:53:47;5.50;;;1.67;;
44143;SDS011;68165;51.920;4.492;2023-07-08T00:56:17;9.38;;;2.05;;
44143;SDS011;68165;51.920;4.492;2023-07-08T00:58:56;4.97;;;1.55;;
44143;SDS011;68165;51.920;4.492;2023-07-08T01:01:25;4.82;;;1.50;;
44143;SDS011;68165;51.920;4.492;2023-07-08T01:04:00;4.28;;;1.75;;
44143;SDS011;68165;51.920;4.492;2023-07-08T01:06:29;4.15;;;1.65;;
44143;SDS011;68165;51.920;4.492;2023-07-08T01:09:02;5.05;;;2.17;;
44143;SDS011;68165;51.920;4.492;2023-07-08T01:11:29;3.65;;;1.48;;
44143;SDS011;68165;51.920;4.492;2023-07-08T01:13:56;3.75;;;1.63;;
44143;SDS011;68165;51.920;4.492;2023-07-08T01:16:24;4.10;;;1.70;;
44143;SDS011;68165;51.920;4.492;2023-07-08T01:18:49;3.92;;;1.73;;
44143;SDS011;68165;51.920;4.492;2023-07-08T01:24:10;4.25;;;1.58;;
44143;SDS011;68165;51.920;4.492;2023-07-08T01:26:37;4.40;;;1.70;;
44143;SDS011;68165;51.920;4.492;2023-07-08T01:29:07;6.05;;;1.75;;
44143;SDS011;68165;51.920;4.492;2023-07-08T01:31:33;5.88;;;1.83;;
44143;SDS011;68165;51.920;4.492;2023-07-08T01:33:59;3.55;;;1.60;;
44143;SDS011;68165;51.920;4.492;2023-07-08T01:36:25;5.80;;;1.92;;
44143;SDS011;68165;51.920;4.492;2023-07-08T01:38:54;4.72;;;1.75;;
44143;SDS011;68165;51.920;4.492;2023-07-08T01:41:20;10.02;;;1.80;;
44143;SDS011;68165;51.920;4.492;2023-07-08T01:43:46;4.95;;;1.63;;
44143;SDS011;68165;51.920;4.492;2023-07-08T01:46:14;3.88;;;1.80;;
44143;SDS011;68165;51.920;4.492;2023-07-08T01:48:49;6.10;;;2.05;;
44143;SDS011;68165;51.920;4.492;2023-07-08T01:51:17;4.47;;;1.92;;
44143;SDS011;68165;51.920;4.492;2023-07-08T01:53:42;6.00;;;1.95;;
44143;SDS011;68165;51.920;4.492;2023-07-08T01:56:12;5.68;;;1.80;;
44143;SDS011;68165;51.920;4.492;2023-07-08T01:58:40;4.70;;;1.92;;
44143;SDS011;68165;51.920;4.492;2023-07-08T02:01:06;4.22;;;1.70;;
44143;SDS011;68165;51.920;4.492;2023-07-08T02:03:32;4.35;;;1.50;;
44143;SDS011;68165;51.920;4.492;2023-07-08T02:05:58;6.18;;;2.08;;
44143;SDS011;68165;51.920;4.492;2023-07-08T02:08:23;4.68;;;1.65;;
44143;SDS011;68165;51.920;4.492;2023-07-08T02:10:50;5.43;;;1.67;;
44143;SDS011;68165;51.920;4.492;2023-07-08T02:13:17;4.70;;;1.73;;
44143;SDS011;68165;51.920;4.492;2023-07-08T02:15:43;4.75;;;2.05;;
44143;SDS011;68165;51.920;4.492;2023-07-08T02:18:08;4.75;;;2.00;;
44143;SDS011;68165;51.920;4.492;2023-07-08T02:20:33;4.25;;;1.85;;
44143;SDS011;68165;51.920;4.492;2023-07-08T02:22:59;5.75;;;1.92;;
44143;SDS011;68165;51.920;4.492;2023-07-08T02:25:25;4.97;;;1.92;;
44143;SDS011;68165;51.920;4.492;2023-07-08T02:27:51;4.03;;;1.75;;
44143;SDS011;68165;51.920;4.492;2023-07-08T02:30:19;5.22;;;1.77;;
44143;SDS011;68165;51.920;4.492;2023-07-08T02:32:44;3.92;;;1.70;;
44143;SDS011;68165;51.920;4.492;2023-07-08T02:35:21;4.57;;;1.83;;
44143;SDS011;68165;51.920;4.492;2023-07-08T02:37:54;5.72;;;1.70;;
44143;SDS011;68165;51.920;4.492;2023-07-08T02:40:21;5.93;;;2.15;;
44143;SDS011;68165;51.920;4.492;2023-07-08T02:42:47;4.57;;;1.92;;
44143;SDS011;68165;51.920;4.492;2023-07-08T02:45:14;6.95;;;2.17;;
44143;SDS011;68165;51.920;4.492;2023-07-08T02:47:40;5.80;;;2.05;;
44143;SDS011;68165;51.920;4.492;2023-07-08T02:50:07;5.13;;;1.60;;
44143;SDS011;68165;51.920;4.492;2023-07-08T02:52:33;5.43;;;1.85;;
44143;SDS011;68165;51.920;4.492;2023-07-08T02:54:58;6.05;;;1.92;;
44143;SDS011;68165;51.920;4.492;2023-07-08T02:57:24;4.05;;;1.60;;
44143;SDS011;68165;51.920;4.492;2023-07-08T02:59:49;4.32;;;1.90;;
44143;SDS011;68165;51.920;4.492;2023-07-08T03:02:14;4.60;;;2.00;;
44143;SDS011;68165;51.920;4.492;2023-07-08T03:04:40;9.32;;;1.98;;
44143;SDS011;68165;51.920;4.492;2023-07-08T03:07:07;5.50;;;1.65;;
44143;SDS011;68165;51.920;4.492;2023-07-08T03:09:36;5.47;;;1.92;;
44143;SDS011;68165;51.920;4.492;2023-07-08T03:12:05;4.35;;;1.80;;
44143;SDS011;68165;51.920;4.492;2023-07-08T03:14:32;3.85;;;1.80;;
44143;SDS011;68165;51.920;4.492;2023-07-08T03:16:57;4.72;;;2.00;;
44143;SDS011;68165;51.920;4.492;2023-07-08T03:19:22;4.13;;;1.88;;
44143;SDS011;68165;51.920;4.492;2023-07-08T03:21:48;5.20;;;1.73;;
44143;SDS011;68165;51.920;4.492;2023-07-08T03:24:13;4.88;;;2.10;;
44143;SDS011;68165;51.920;4.492;2023-07-08T03:26:41;4.90;;;2.15;;
44143;SDS011;68165;51.920;4.492;2023-07-08T03:29:10;5.18;;;1.92;;
44143;SDS011;68165;51.920;4.492;2023-07-08T03:31:39;6.53;;;2.40;;
44143;SDS011;68165;51.920;4.492;2023-07-08T03:34:07;4.13;;;2.05;;
44143;SDS011;68165;51.920;4.492;2023-07-08T03:36:35;10.35;;;1.92;;
44143;SDS011;68165;51.920;4.492;2023-07-08T03:39:05;4.97;;;2.20;;
44143;SDS011;68165;51.920;4.492;2023-07-08T03:41:30;5.10;;;1.88;;
44143;SDS011;68165;51.920;4.492;2023-07-08T03:43:56;5.35;;;2.17;;
44143;SDS011;68165;51.920;4.492;2023-07-08T03:46:21;3.83;;;1.63;;
44143;SDS011;68165;51.920;4.492;2023-07-08T03:48:47;4.82;;;1.80;;
44143;SDS011;68165;51.920;4.492;2023-07-08T03:51:21;5.35;;;2.33;;
44143;SDS011;68165;51.920;4.492;2023-07-08T03:53:48;4.47;;;2.17;;
44143;SDS011;68165;51.920;4.492;2023-07-08T03:56:14;5.35;;;1.95;;
44143;SDS011;68165;51.920;4.492;2023-07-08T03:58:39;4.85;;;1.98;;
44143;SDS011;68165;51.920;4.492;2023-07-08T04:01:05;5.18;;;1.92;;
44143;SDS011;68165;51.920;4.492;2023-07-08T04:03:38;5.13;;;2.15;;
44143;SDS011;68165;51.920;4.492;2023-07-08T04:06:04;6.60;;;2.13;;
44143;SDS011;68165;51.920;4.492;2023-07-08T04:08:29;5.78;;;1.98;;
44143;SDS011;68165;51.920;4.492;2023-07-08T04:10:56;6.28;;;2.10;;
44143;SDS011;68165;51.920;4.492;2023-07-08T04:13:21;3.47;;;1.70;;
44143;SDS011;68165;51.920;4.492;2023-07-08T04:15:51;4.75;;;1.98;;
44143;SDS011;68165;51.920;4.492;2023-07-08T04:18:21;5.15;;;2.08;;
44143;SDS011;68165;51.920;4.492;2023-07-08T04:20:46;4.45;;;2.10;;
44143;SDS011;68165;51.920;4.492;2023-07-08T04:23:17;4.50;;;1.90;;
44143;SDS011;68165;51.920;4.492;2023-07-08T04:25:46;5.10;;;2.22;;
44143;SDS011;68165;51.920;4.492;2023-07-08T04:28:12;5.00;;;1.98;;
44143;SDS011;68165;51.920;4.492;2023-07-08T04:30:38;4.22;;;1.65;;
44143;SDS011;68165;51.920;4.492;2023-07-08T04:33:09;4.50;;;1.70;;
44143;SDS011;68165;51.920;4.492;2023-07-08T04:35:37;4.88;;;1.67;;
44143;SDS011;68165;51.920;4.492;2023-07-08T04:38:04;4.20;;;1.70;;
44143;SDS011;68165;51.920;4.492;2023-07-08T04:40:34;3.70;;;1.80;;
44143;SDS011;68165;51.920;4.492;2023-07-08T04:43:05;5.30;;;2.00;;
44143;SDS011;68165;51.920;4.492;2023-07-08T04:45:31;5.40;;;2.05;;
44143;SDS011;68165;51.920;4.492;2023-07-08T04:47:57;3.70;;;1.83;;
44143;SDS011;68165;51.920;4.492;2023-07-08T04:50:22;5.38;;;1.98;;
44143;SDS011;68165;51.920;4.492;2023-07-08T04:52:47;5.28;;;2.25;;
44143;SDS011;68165;51.920;4.492;2023-07-08T04:55:14;3.58;;;1.50;;
44143;SDS011;68165;51.920;4.492;2023-07-08T04:57:39;5.28;;;2.00;;
44143;SDS011;68165;51.920;4.492;2023-07-08T05:00:05;4.60;;;2.08;;
44143;SDS011;68165;51.920;4.492;2023-07-08T05:02:33;5.20;;;2.15;;
44143;SDS011;68165;51.920;4.492;2023-07-08T05:04:59;5.82;;;2.10;;
44143;SDS011;68165;51.920;4.492;2023-07-08T05:07:24;4.88;;;2.17;;
44143;SDS011;68165;51.920;4.492;2023-07-08T05:09:49;4.50;;;1.95;;
44143;SDS011;68165;51.920;4.492;2023-07-08T05:12:16;5.30;;;1.98;;
44143;SDS011;68165;51.920;4.492;2023-07-08T05:14:41;5.00;;;2.20;;
44143;SDS011;68165;51.920;4.492;2023-07-08T05:17:07;5.50;;;2.10;;
44143;SDS011;68165;51.920;4.492;2023-07-08T05:19:33;4.55;;;2.03;;
44143;SDS011;68165;51.920;4.492;2023-07-08T05:21:58;6.57;;;2.40;;
44143;SDS011;68165;51.920;4.492;2023-07-08T05:24:23;4.45;;;1.70;;
44143;SDS011;68165;51.920;4.492;2023-07-08T05:26:49;5.35;;;2.25;;
44143;SDS011;68165;51.920;4.492;2023-07-08T05:29:14;3.50;;;1.60;;
44143;SDS011;68165;51.920;4.492;2023-07-08T05:31:39;5.35;;;2.15;;
44143;SDS011;68165;51.920;4.492;2023-07-08T05:34:05;6.50;;;2.08;;
44143;SDS011;68165;51.920;4.492;2023-07-08T05:36:30;4.78;;;1.85;;
44143;SDS011;68165;51.920;4.492;2023-07-08T05:38:56;7.70;;;2.22;;
44143;SDS011;68165;51.920;4.492;2023-07-08T05:41:21;4.53;;;1.92;;
44143;SDS011;68165;51.920;4.492;2023-07-08T05:43:46;6.82;;;1.95;;
44143;SDS011;68165;51.920;4.492;2023-07-08T05:46:12;4.72;;;1.90;;
44143;SDS011;68165;51.920;4.492;2023-07-08T05:48:37;9.75;;;1.95;;
44143;SDS011;68165;51.920;4.492;2023-07-08T05:51:02;5.30;;;1.83;;
44143;SDS011;68165;51.920;4.492;2023-07-08T05:53:28;5.15;;;1.77;;
44143;SDS011;68165;51.920;4.492;2023-07-08T05:55:53;7.50;;;2.10;;
44143;SDS011;68165;51.920;4.492;2023-07-08T05:58:19;8.07;;;2.22;;
44143;SDS011;68165;51.920;4.492;2023-07-08T06:00:44;4.45;;;1.95;;
44143;SDS011;68165;51.920;4.492;2023-07-08T06:03:10;5.30;;;1.73;;
44143;SDS011;68165;51.920;4.492;2023-07-08T06:05:37;4.53;;;1.60;;
44143;SDS011;68165;51.920;4.492;2023-07-08T06:08:05;4.82;;;2.13;;
44143;SDS011;68165;51.920;4.492;2023-07-08T06:10:31;5.00;;;2.33;;
44143;SDS011;68165;51.920;4.492;2023-07-08T06:12:56;6.53;;;2.20;;
44143;SDS011;68165;51.920;4.492;2023-07-08T06:15:22;4.60;;;2.22;;
44143;SDS011;68165;51.920;4.492;2023-07-08T06:17:47;7.07;;;2.10;;
44143;SDS011;68165;51.920;4.492;2023-07-08T06:20:12;5.35;;;1.90;;
44143;SDS011;68165;51.920;4.492;2023-07-08T06:22:38;3.83;;;1.73;;
44143;SDS011;68165;51.920;4.492;2023-07-08T06:25:03;5.13;;;2.20;;
44143;SDS011;68165;51.920;4.492;2023-07-08T06:27:29;3.95;;;1.80;;
44143;SDS011;68165;51.920;4.492;2023-07-08T06:29:54;5.60;;;2.38;;
44143;SDS011;68165;51.920;4.492;2023-07-08T06:32:20;5.75;;;1.60;;
44143;SDS011;68165;51.920;4.492;2023-07-08T06:34:45;4.95;;;2.40;;
44143;SDS011;68165;51.920;4.492;2023-07-08T06:37:10;8.23;;;2.72;;
44143;SDS011;68165;51.920;4.492;2023-07-08T06:39:36;4.32;;;1.90;;
44143;SDS011;68165;51.920;4.492;2023-07-08T06:42:01;6.07;;;1.83;;
44143;SDS011;68165;51.920;4.492;2023-07-08T06:44:26;3.80;;;1.95;;
44143;SDS011;68165;51.920;4.492;2023-07-08T06:46:52;8.55;;;2.38;;
44143;SDS011;68165;51.920;4.492;2023-07-08T06:49:17;3.97;;;1.80;;
44143;SDS011;68165;51.920;4.492;2023-07-08T06:51:43;5.47;;;2.10;;
44143;SDS011;68165;51.920;4.492;2023-07-08T06:54:10;4.70;;;2.15;;
44143;SDS011;68165;51.920;4.492;2023-07-08T06:56:39;4.28;;;1.83;;
44143;SDS011;68165;51.920;4.492;2023-07-08T06:59:06;6.15;;;1.83;;
44143;SDS011;68165;51.920;4.492;2023-07-08T07:01:32;5.70;;;2.30;;
44143;SDS011;68165;51.920;4.492;2023-07-08T07:03:58;7.20;;;2.28;;
44143;SDS011;68165;51.920;4.492;2023-07-08T07:06:24;7.30;;;2.10;;
44143;SDS011;68165;51.920;4.492;2023-07-08T07:08:49;4.57;;;1.63;;
44143;SDS011;68165;51.920;4.492;2023-07-08T07:11:15;5.55;;;2.30;;
44143;SDS011;68165;51.920;4.492;2023-07-08T07:13:40;8.27;;;2.75;;
44143;SDS011;68165;51.920;4.492;2023-07-08T07:16:06;6.53;;;2.30;;
44143;SDS011;68165;51.920;4.492;2023-07-08T07:18:31;5.70;;;2.20;;
44143;SDS011;68165;51.920;4.492;2023-07-08T07:20:57;5.00;;;1.98;;
44143;SDS011;68165;51.920;4.492;2023-07-08T07:23:23;6.07;;;2.47;;
44143;SDS011;68165;51.920;4.492;2023-07-08T07:25:49;5.47;;;2.45;;
44143;SDS011;68165;51.920;4.492;2023-07-08T07:28:15;5.10;;;2.42;;
44143;SDS011;68165;51.920;4.492;2023-07-08T07:30:42;9.18;;;2.28;;
44143;SDS011;68165;51.920;4.492;2023-07-08T07:33:11;6.18;;;2.20;;
44143;SDS011;68165;51.920;4.492;2023-07-08T07:35:41;6.63;;;1.95;;
44143;SDS011;68165;51.920;4.492;2023-07-08T07:38:07;6.35;;;2.28;;
44143;SDS011;68165;51.920;4.492;2023-07-08T07:40:32;6.88;;;2.78;;
44143;SDS011;68165;51.920;4.492;2023-07-08T07:42:58;8.20;;;2.65;;
44143;SDS011;68165;51.920;4.492;2023-07-08T07:45:23;7.28;;;2.30;;
44143;SDS011;68165;51.920;4.492;2023-07-08T07:47:48;6.78;;;2.15;;
44143;SDS011;68165;51.920;4.492;2023-07-08T07:50:14;6.00;;;2.42;;
44143;SDS011;68165;51.920;4.492;2023-07-08T07:52:40;8.95;;;2.90;;
44143;SDS011;68165;51.920;4.492;2023-07-08T07:55:05;8.73;;;2.58;;
44143;SDS011;68165;51.920;4.492;2023-07-08T07:57:31;6.60;;;2.38;;
44143;SDS011;68165;51.920;4.492;2023-07-08T07:59:56;7.07;;;3.03;;
44143;SDS011;68165;51.920;4.492;2023-07-08T08:02:21;5.50;;;2.40;;
44143;SDS011;68165;51.920;4.492;2023-07-08T08:04:47;8.07;;;2.30;;
44143;SDS011;68165;51.920;4.492;2023-07-08T08:07:12;7.03;;;2.47;;
44143;SDS011;68165;51.920;4.492;2023-07-08T08:09:37;6.35;;;2.45;;
44143;SDS011;68165;51.920;4.492;2023-07-08T08:12:03;5.65;;;2.47;;
44143;SDS011;68165;51.920;4.492;2023-07-08T08:14:29;5.55;;;2.63;;
44143;SDS011;68165;51.920;4.492;2023-07-08T08:16:55;8.02;;;3.10;;
44143;SDS011;68165;51.920;4.492;2023-07-08T08:19:20;7.03;;;2.92;;
44143;SDS011;68165;51.920;4.492;2023-07-08T08:21:45;6.78;;;3.00;;
44143;SDS011;68165;51.920;4.492;2023-07-08T08:24:11;8.00;;;3.22;;
44143;SDS011;68165;51.920;4.492;2023-07-08T08:26:36;6.50;;;2.50;;
44143;SDS011;68165;51.920;4.492;2023-07-08T08:29:01;6.75;;;2.38;;
44143;SDS011;68165;51.920;4.492;2023-07-08T08:31:27;6.72;;;2.97;;
44143;SDS011;68165;51.920;4.492;2023-07-08T08:33:52;6.40;;;2.72;;
44143;SDS011;68165;51.920;4.492;2023-07-08T08:36:18;8.38;;;3.10;;
44143;SDS011;68165;51.920;4.492;2023-07-08T08:38:45;8.90;;;2.80;;
44143;SDS011;68165;51.920;4.492;2023-07-08T08:41:15;6.35;;;2.58;;
44143;SDS011;68165;51.920;4.492;2023-07-08T08:43:46;5.15;;;2.50;;
44143;SDS011;68165;51.920;4.492;2023-07-08T08:51:50;7.10;;;2.95;;
44143;SDS011;68165;51.920;4.492;2023-07-08T08:54:17;5.50;;;2.60;;
44143;SDS011;68165;51.920;4.492;2023-07-08T08:56:48;7.40;;;2.20;;
44143;SDS011;68165;51.920;4.492;2023-07-08T09:01:54;9.68;;;3.20;;
44143;SDS011;68165;51.920;4.492;2023-07-08T09:04:28;6.50;;;2.30;;
44143;SDS011;68165;51.920;4.492;2023-07-08T09:07:00;8.25;;;3.00;;
44143;SDS011;68165;51.920;4.492;2023-07-08T09:12:22;10.57;;;2.47;;
44143;SDS011;68165;51.920;4.492;2023-07-08T09:14:51;5.93;;;2.38;;
44143;SDS011;68165;51.920;4.492;2023-07-08T09:19:58;6.18;;;2.50;;
44143;SDS011;68165;51.920;4.492;2023-07-08T09:22:41;7.87;;;2.70;;
44143;SDS011;68165;51.920;4.492;2023-07-08T09:27:40;6.55;;;2.80;;
44143;SDS011;68165;51.920;4.492;2023-07-08T09:30:12;6.05;;;2.53;;
44143;SDS011;68165;51.920;4.492;2023-07-08T09:32:42;8.75;;;2.72;;
44143;SDS011;68165;51.920;4.492;2023-07-08T09:35:08;6.68;;;2.45;;
44143;SDS011;68165;51.920;4.492;2023-07-08T09:37:44;5.65;;;2.67;;
44143;SDS011;68165;51.920;4.492;2023-07-08T09:40:16;6.53;;;2.63;;
44143;SDS011;68165;51.920;4.492;2023-07-08T09:42:49;7.93;;;2.40;;
44143;SDS011;68165;51.920;4.492;2023-07-08T09:45:21;6.70;;;2.63;;
44143;SDS011;68165;51.920;4.492;2023-07-08T09:47:51;8.10;;;2.60;;
44143;SDS011;68165;51.920;4.492;2023-07-08T09:50:19;6.22;;;3.17;;
44143;SDS011;68165;51.920;4.492;2023-07-08T09:52:51;6.07;;;2.70;;
44143;SDS011;68165;51.920;4.492;2023-07-08T09:55:19;5.72;;;2.42;;
44143;SDS011;68165;51.920;4.492;2023-07-08T09:57:45;6.40;;;2.63;;
44143;SDS011;68165;51.920;4.492;2023-07-08T10:00:14;7.50;;;2.92;;
44143;SDS011;68165;51.920;4.492;2023-07-08T10:02:45;6.60;;;2.83;;
44143;SDS011;68165;51.920;4.492;2023-07-08T10:05:13;6.57;;;2.40;;
44143;SDS011;68165;51.920;4.492;2023-07-08T10:07:52;6.85;;;3.40;;
44143;SDS011;68165;51.920;4.492;2023-07-08T10:10:22;8.90;;;3.30;;
44143;SDS011;68165;51.920;4.492;2023-07-08T10:12:57;8.13;;;3.25;;
44143;SDS011;68165;51.920;4.492;2023-07-08T10:18:02;7.25;;;3.22;;
44143;SDS011;68165;51.920;4.492;2023-07-08T10:20:40;7.85;;;3.83;;
44143;SDS011;68165;51.920;4.492;2023-07-08T10:29:11;7.50;;;3.60;;
44143;SDS011;68165;51.920;4.492;2023-07-08T10:31:48;6.32;;;3.00;;
44143;SDS011;68165;51.920;4.492;2023-07-08T10:37:48;8.82;;;2.97;;
44143;SDS011;68165;51.920;4.492;2023-07-08T10:42:44;6.28;;;2.95;;
44143;SDS011;68165;51.920;4.492;2023-07-08T10:45:19;8.45;;;3.45;;
44143;SDS011;68165;51.920;4.492;2023-07-08T10:47:58;9.70;;;4.10;;
44143;SDS011;68165;51.920;4.492;2023-07-08T11:07:40;7.45;;;3.17;;
44143;SDS011;68165;51.920;4.492;2023-07-08T11:10:14;8.60;;;3.40;;
44143;SDS011;68165;51.920;4.492;2023-07-08T11:12:52;6.82;;;2.95;;
44143;SDS011;68165;51.920;4.492;2023-07-08T11:15:43;9.13;;;3.65;;
44143;SDS011;68165;51.920;4.492;2023-07-08T11:21:02;7.28;;;3.15;;
44143;SDS011;68165;51.920;4.492;2023-07-08T11:23:40;11.70;;;3.92;;
44143;SDS011;68165;51.920;4.492;2023-07-08T11:26:28;6.40;;;3.13;;
44143;SDS011;68165;51.920;4.492;2023-07-08T11:28:59;12.82;;;3.28;;
44143;SDS011;68165;51.920;4.492;2023-07-08T11:31:27;7.53;;;3.60;;
44143;SDS011;68165;51.920;4.492;2023-07-08T11:33:55;7.68;;;3.33;;
44143;SDS011;68165;51.920;4.492;2023-07-08T11:36:23;8.88;;;3.67;;
44143;SDS011;68165;51.920;4.492;2023-07-08T11:38:54;11.13;;;4.03;;
44143;SDS011;68165;51.920;4.492;2023-07-08T11:41:22;8.43;;;3.10;;
44143;SDS011;68165;51.920;4.492;2023-07-08T11:43:51;7.75;;;3.53;;
44143;SDS011;68165;51.920;4.492;2023-07-08T11:46:22;9.80;;;3.08;;
44143;SDS011;68165;51.920;4.492;2023-07-08T11:48:51;8.77;;;3.72;;
44143;SDS011;68165;51.920;4.492;2023-07-08T11:51:39;8.32;;;3.25;;
44143;SDS011;68165;51.920;4.492;2023-07-08T12:09:37;10.75;;;3.28;;
44143;SDS011;68165;51.920;4.492;2023-07-08T12:12:14;7.85;;;3.17;;
44143;SDS011;68165;51.920;4.492;2023-07-08T12:14:44;10.13;;;3.67;;
44143;SDS011;68165;51.920;4.492;2023-07-08T12:17:11;7.18;;;3.58;;
44143;SDS011;68165;51.920;4.492;2023-07-08T12:19:39;6.72;;;3.20;;
44143;SDS011;68165;51.920;4.492;2023-07-08T12:22:07;7.80;;;3.63;;
44143;SDS011;68165;51.920;4.492;2023-07-08T12:24:34;8.90;;;3.47;;
44143;SDS011;68165;51.920;4.492;2023-07-08T12:26:59;9.05;;;3.35;;
44143;SDS011;68165;51.920;4.492;2023-07-08T12:29:25;7.18;;;3.47;;
44143;SDS011;68165;51.920;4.492;2023-07-08T12:31:50;8.10;;;3.10;;
44143;SDS011;68165;51.920;4.492;2023-07-08T12:34:16;7.07;;;3.28;;
44143;SDS011;68165;51.920;4.492;2023-07-08T12:36:43;7.38;;;2.90;;
44143;SDS011;68165;51.920;4.492;2023-07-08T12:39:11;8.23;;;3.03;;
44143;SDS011;68165;51.920;4.492;2023-07-08T12:41:41;7.90;;;3.35;;
44143;SDS011;68165;51.920;4.492;2023-07-08T12:44:16;11.80;;;3.00;;
44143;SDS011;68165;51.920;4.492;2023-07-08T12:46:47;8.07;;;2.97;;
44143;SDS011;68165;51.920;4.492;2023-07-08T12:49:14;7.88;;;2.78;;
44143;SDS011;68165;51.920;4.492;2023-07-08T12:51:41;8.57;;;3.35;;
44143;SDS011;68165;51.920;4.492;2023-07-08T12:54:09;7.38;;;2.70;;
44143;SDS011;68165;51.920;4.492;2023-07-08T12:56:35;8.40;;;2.95;;
44143;SDS011;68165;51.920;4.492;2023-07-08T12:59:02;7.20;;;2.90;;
44143;SDS011;68165;51.920;4.492;2023-07-08T13:01:29;5.82;;;2.50;;
44143;SDS011;68165;51.920;4.492;2023-07-08T13:03:59;6.65;;;2.88;;
44143;SDS011;68165;51.920;4.492;2023-07-08T13:06:28;7.88;;;2.88;;
44143;SDS011;68165;51.920;4.492;2023-07-08T13:09:06;11.02;;;3.00;;
44143;SDS011;68165;51.920;4.492;2023-07-08T13:11:44;7.38;;;3.25;;
44143;SDS011;68165;51.920;4.492;2023-07-08T13:14:11;6.28;;;2.75;;
44143;SDS011;68165;51.920;4.492;2023-07-08T13:16:39;9.18;;;3.50;;
44143;SDS011;68165;51.920;4.492;2023-07-08T13:19:05;6.18;;;2.40;;
44143;SDS011;68165;51.920;4.492;2023-07-08T13:21:31;8.57;;;2.63;;
44143;SDS011;68165;51.920;4.492;2023-07-08T13:23:57;8.68;;;2.80;;
44143;SDS011;68165;51.920;4.492;2023-07-08T13:26:25;7.32;;;3.10;;
44143;SDS011;68165;51.920;4.492;2023-07-08T13:31:56;7.38;;;2.78;;
44143;SDS011;68165;51.920;4.492;2023-07-08T13:34:27;8.27;;;3.13;;
44143;SDS011;68165;51.920;4.492;2023-07-08T13:36:52;8.35;;;3.15;;
44143;SDS011;68165;51.920;4.492;2023-07-08T13:39:32;6.65;;;2.75;;
44143;SDS011;68165;51.920;4.492;2023-07-08T13:41:59;7.33;;;2.80;;
44143;SDS011;68165;51.920;4.492;2023-07-08T13:44:25;8.77;;;2.47;;
44143;SDS011;68165;51.920;4.492;2023-07-08T13:52:04;7.22;;;3.30;;
44143;SDS011;68165;51.920;4.492;2023-07-08T13:57:12;6.38;;;2.72;;
44143;SDS011;68165;51.920;4.492;2023-07-08T13:59:41;8.63;;;3.00;;
44143;SDS011;68165;51.920;4.492;2023-07-08T14:02:14;6.10;;;2.85;;
44143;SDS011;68165;51.920;4.492;2023-07-08T14:04:40;6.57;;;2.95;;
44143;SDS011;68165;51.920;4.492;2023-07-08T14:07:09;10.05;;;3.63;;
44143;SDS011;68165;51.920;4.492;2023-07-08T14:09:42;7.97;;;3.72;;
44143;SDS011;68165;51.920;4.492;2023-07-08T14:12:08;7.57;;;3.00;;
44143;SDS011;68165;51.920;4.492;2023-07-08T14:14:33;6.65;;;3.40;;
44143;SDS011;68165;51.920;4.492;2023-07-08T14:16:58;6.85;;;2.83;;
44143;SDS011;68165;51.920;4.492;2023-07-08T14:19:24;7.53;;;3.53;;
44143;SDS011;68165;51.920;4.492;2023-07-08T14:21:57;7.38;;;3.30;;
44143;SDS011;68165;51.920;4.492;2023-07-08T14:24:24;9.00;;;3.95;;
44143;SDS011;68165;51.920;4.492;2023-07-08T14:26:51;9.35;;;3.70;;
44143;SDS011;68165;51.920;4.492;2023-07-08T14:29:18;8.93;;;3.95;;
44143;SDS011;68165;51.920;4.492;2023-07-08T14:31:44;8.68;;;3.67;;
44143;SDS011;68165;51.920;4.492;2023-07-08T14:34:13;11.20;;;3.55;;
44143;SDS011;68165;51.920;4.492;2023-07-08T14:36:46;8.40;;;3.38;;
44143;SDS011;68165;51.920;4.492;2023-07-08T14:39:15;8.15;;;3.42;;
44143;SDS011;68165;51.920;4.492;2023-07-08T14:41:43;8.05;;;3.60;;
44143;SDS011;68165;51.920;4.492;2023-07-08T14:46:49;10.05;;;3.88;;
44143;SDS011;68165;51.920;4.492;2023-07-08T14:49:17;8.50;;;3.75;;
44143;SDS011;68165;51.920;4.492;2023-07-08T14:51:44;7.80;;;3.53;;
44143;SDS011;68165;51.920;4.492;2023-07-08T14:54:11;10.32;;;3.65;;
44143;SDS011;68165;51.920;4.492;2023-07-08T14:56:37;8.35;;;3.17;;
44143;SDS011;68165;51.920;4.492;2023-07-08T14:59:03;9.15;;;3.25;;
44143;SDS011;68165;51.920;4.492;2023-07-08T15:01:29;6.90;;;3.53;;
44143;SDS011;68165;51.920;4.492;2023-07-08T15:03:56;8.60;;;4.10;;
44143;SDS011;68165;51.920;4.492;2023-07-08T15:06:22;10.90;;;4.03;;
44143;SDS011;68165;51.920;4.492;2023-07-08T15:08:48;7.03;;;3.42;;
44143;SDS011;68165;51.920;4.492;2023-07-08T15:11:14;8.68;;;4.28;;
44143;SDS011;68165;51.920;4.492;2023-07-08T15:13:42;11.93;;;4.15;;
44143;SDS011;68165;51.920;4.492;2023-07-08T15:16:13;10.32;;;4.45;;
44143;SDS011;68165;51.920;4.492;2023-07-08T15:18:41;9.95;;;3.45;;
44143;SDS011;68165;51.920;4.492;2023-07-08T15:21:14;7.95;;;3.65;;
44143;SDS011;68165;51.920;4.492;2023-07-08T15:23:40;8.80;;;3.85;;
44143;SDS011;68165;51.920;4.492;2023-07-08T15:26:08;8.52;;;3.78;;
44143;SDS011;68165;51.920;4.492;2023-07-08T15:31:05;9.52;;;3.13;;
44143;SDS011;68165;51.920;4.492;2023-07-08T15:33:33;10.55;;;3.75;;
44143;SDS011;68165;51.920;4.492;2023-07-08T15:35:58;9.00;;;3.50;;
44143;SDS011;68165;51.920;4.492;2023-07-08T15:38:23;7.78;;;3.78;;
44143;SDS011;68165;51.920;4.492;2023-07-08T15:40:49;8.27;;;3.45;;
44143;SDS011;68165;51.920;4.492;2023-07-08T15:43:14;6.22;;;3.05;;
44143;SDS011;68165;51.920;4.492;2023-07-08T15:45:40;7.85;;;3.92;;
44143;SDS011;68165;51.920;4.492;2023-07-08T15:48:16;9.43;;;3.67;;
44143;SDS011;68165;51.920;4.492;2023-07-08T15:50:42;9.40;;;3.70;;
44143;SDS011;68165;51.920;4.492;2023-07-08T15:53:08;8.52;;;3.85;;
44143;SDS011;68165;51.920;4.492;2023-07-08T15:55:36;11.32;;;3.72;;
44143;SDS011;68165;51.920;4.492;2023-07-08T16:00:48;9.63;;;3.55;;
44143;SDS011;68165;51.920;4.492;2023-07-08T16:03:19;13.23;;;3.83;;
44143;SDS011;68165;51.920;4.492;2023-07-08T16:05:48;8.43;;;3.90;;
44143;SDS011;68165;51.920;4.492;2023-07-08T16:08:14;9.77;;;3.90;;
44143;SDS011;68165;51.920;4.492;2023-07-08T16:10:39;7.03;;;3.60;;
44143;SDS011;68165;51.920;4.492;2023-07-08T16:13:05;7.72;;;3.70;;
44143;SDS011;68165;51.920;4.492;2023-07-08T16:15:32;9.15;;;3.90;;
44143;SDS011;68165;51.920;4.492;2023-07-08T16:18:03;8.20;;;3.53;;
44143;SDS011;68165;51.920;4.492;2023-07-08T16:20:29;9.43;;;3.80;;
44143;SDS011;68165;51.920;4.492;2023-07-08T16:22:57;7.28;;;3.35;;